Seven Seas Voyager — C6SW3 — position and weather

sailwx.info

Track history (hours):
 
Tides and Currents Weather Stations Pressure Air Temp Water Temp Dewpoint Dewpoint Depression Visibility Wind Speed Wind Dir Waves Ship Positions

Seven Seas Voyager

Last reported at 2018-May-27 12:55 UTC. Time now 2018-May-27 17:25 UTC.
Position N 34°39' E 033°04'.

Length 205 m; draft 7 m.

Type: Ship. MMSI: 31151000.

Date/timePositionNaut miles runAvg speedWind from/ knotsBaromVisibWave heightAir tempDewpointWater temp
2018-May-27 12:55N 34°39' E 033°04'2 6.1
2018-May-27 12:31N 34°39' E 033°01'0 0.0
2018-May-27 12:00N 34°39' E 033°01'0 0.0
2018-May-27 11:21N 34°39' E 033°01'0 0.0
2018-May-27 10:57N 34°39' E 033°01'0 0.0
2018-May-27 10:27N 34°39' E 033°01'0 0.0
2018-May-27 09:57N 34°39' E 033°01'0 0.0
2018-May-27 09:21N 34°39' E 033°01'0 0.0
2018-May-27 08:57N 34°39' E 033°01'0 0.0
2018-May-27 08:27N 34°39' E 033°01'0 0.0
2018-May-27 07:57N 34°39' E 033°01'0 0.0
2018-May-27 07:27N 34°39' E 033°01'0 0.0
2018-May-27 06:51N 34°39' E 033°01'0 0.0
2018-May-27 06:27N 34°39' E 033°01'0 0.0
2018-May-27 05:57N 34°39' E 033°01'0 0.0
2018-May-27 05:27N 34°39' E 033°01'0 0.0
2018-May-27 04:57N 34°39' E 033°01'0 0.0
2018-May-27 04:26N 34°39' E 033°01'13213.5
2018-May-26 18:41N 32°57' E 034°41'313.8
2018-May-26 18:30N 32°56' E 034°44'916.3
2018-May-26 17:59N 32°54' E 034°54'7 0.2
2018-May-25 00:57N 32°51' E 035°01'510.6
2018-May-25 00:30N 32°52' E 034°56'612.5
2018-May-25 00:00N 32°54' E 034°48'612.5
2018-May-24 23:30N 32°55' E 034°41'612.2
2018-May-24 23:00N 32°56' E 034°34'612.1
2018-May-24 22:30N 32°57' E 034°27'611.3
2018-May-24 22:00N 32°57' E 034°20'612.0
2018-May-24 21:30N 32°53' E 034°15'611.9
2018-May-24 21:00N 32°49' E 034°09'611.9
2018-May-24 20:30N 32°45' E 034°04'611.8
2018-May-24 20:00N 32°41' E 033°59'714.1
2018-May-24 19:30N 32°36' E 033°52'816.5
2018-May-24 19:00N 32°31' E 033°45'816.6
2018-May-24 18:30N 32°25' E 033°38'816.7
2018-May-24 18:00N 32°20' E 033°30'816.7
2018-May-24 17:30N 32°15' E 033°23'815.8
2018-May-24 17:00N 32°09' E 033°16'714.8
2018-May-24 16:30N 32°04' E 033°09'816.4
2018-May-24 16:00N 31°59' E 033°02'816.5
2018-May-24 15:30N 31°54' E 032°55'816.4
2018-May-24 15:00N 31°48' E 032°47'816.6
2018-May-24 14:30N 31°43' E 032°40'816.4
2018-May-24 14:00N 31°39' E 032°31'816.4
2018-May-24 13:30N 31°35' E 032°23'  
Track history (hours):
 
Tides and Currents Weather Stations Pressure Air Temp Water Temp Dewpoint Dewpoint Depression Visibility Wind Speed Wind Dir Waves Ship Positions

Seven Seas Voyager

Last reported at 2018-May-27 12:55 UTC. Time now 2018-May-27 17:25 UTC.
Position N 34°39' E 033°04'.

Length 205 m; draft 7 m.

Type: Ship. MMSI: 31151000.

Date/timePositionNaut miles runAvg speedWind from/ knotsBaromVisibWave heightAir tempDewpointWater temp
2018-May-27 12:55N 34°39' E 033°04'2 6.1
2018-May-27 12:31N 34°39' E 033°01'0 0.0
2018-May-27 12:00N 34°39' E 033°01'0 0.0
2018-May-27 11:21N 34°39' E 033°01'0 0.0
2018-May-27 10:57N 34°39' E 033°01'0 0.0
2018-May-27 10:27N 34°39' E 033°01'0 0.0
2018-May-27 09:57N 34°39' E 033°01'0 0.0
2018-May-27 09:21N 34°39' E 033°01'0 0.0
2018-May-27 08:57N 34°39' E 033°01'0 0.0
2018-May-27 08:27N 34°39' E 033°01'0 0.0
2018-May-27 07:57N 34°39' E 033°01'0 0.0
2018-May-27 07:27N 34°39' E 033°01'0 0.0
2018-May-27 06:51N 34°39' E 033°01'0 0.0
2018-May-27 06:27N 34°39' E 033°01'0 0.0
2018-May-27 05:57N 34°39' E 033°01'0 0.0
2018-May-27 05:27N 34°39' E 033°01'0 0.0
2018-May-27 04:57N 34°39' E 033°01'0 0.0
2018-May-27 04:26N 34°39' E 033°01'13213.5
2018-May-26 18:41N 32°57' E 034°41'313.8
2018-May-26 18:30N 32°56' E 034°44'916.3
2018-May-26 17:59N 32°54' E 034°54'7 0.2
2018-May-25 00:57N 32°51' E 035°01'510.6
2018-May-25 00:30N 32°52' E 034°56'612.5
2018-May-25 00:00N 32°54' E 034°48'612.5
2018-May-24 23:30N 32°55' E 034°41'612.2
2018-May-24 23:00N 32°56' E 034°34'612.1
2018-May-24 22:30N 32°57' E 034°27'611.3
2018-May-24 22:00N 32°57' E 034°20'612.0
2018-May-24 21:30N 32°53' E 034°15'611.9
2018-May-24 21:00N 32°49' E 034°09'611.9
2018-May-24 20:30N 32°45' E 034°04'611.8
2018-May-24 20:00N 32°41' E 033°59'714.1
2018-May-24 19:30N 32°36' E 033°52'816.5
2018-May-24 19:00N 32°31' E 033°45'816.6
2018-May-24 18:30N 32°25' E 033°38'816.7
2018-May-24 18:00N 32°20' E 033°30'816.7
2018-May-24 17:30N 32°15' E 033°23'815.8
2018-May-24 17:00N 32°09' E 033°16'714.8
2018-May-24 16:30N 32°04' E 033°09'816.4
2018-May-24 16:00N 31°59' E 033°02'816.5
2018-May-24 15:30N 31°54' E 032°55'816.4
2018-May-24 15:00N 31°48' E 032°47'816.6
2018-May-24 14:30N 31°43' E 032°40'816.4
2018-May-24 14:00N 31°39' E 032°31'816.4
2018-May-24 13:30N 31°35' E 032°23'  

Dump ship's entire track history